createdAt,value
2023-03-17T00:01:50.943Z,90.65
2023-03-17T00:04:21.844Z,90.60
2023-03-17T00:06:48.624Z,90.18
2023-03-17T00:09:17.500Z,90.24
2023-03-17T00:11:45.613Z,91.03
2023-03-17T00:14:12.142Z,91.74
2023-03-17T00:16:42.295Z,91.82
2023-03-17T00:19:17.114Z,91.64
2023-03-17T00:21:43.915Z,91.69
2023-03-17T00:24:14.738Z,92.83
2023-03-17T00:26:42.099Z,93.34
2023-03-17T00:29:09.056Z,94.35
2023-03-17T00:31:36.238Z,94.51
2023-03-17T00:34:02.718Z,94.83
2023-03-17T00:36:32.307Z,95.29
2023-03-17T00:38:59.466Z,96.17
2023-03-17T00:41:27.101Z,96.42
2023-03-17T00:43:54.024Z,97.16
2023-03-17T00:46:35.363Z,97.65
2023-03-17T00:51:43.726Z,98.46
2023-03-17T00:54:11.380Z,99.08
2023-03-17T00:56:39.412Z,99.85
2023-03-17T00:59:19.288Z,99.78
2023-03-17T01:01:46.630Z,99.89
2023-03-17T01:04:13.563Z,99.79
2023-03-17T01:06:40.092Z,99.84
2023-03-17T01:09:08.168Z,100.00
2023-03-17T01:11:34.970Z,100.00
2023-03-17T01:14:01.350Z,100.00
2023-03-17T01:16:28.974Z,100.00
2023-03-17T01:18:55.508Z,100.00
2023-03-17T01:21:22.344Z,100.00
2023-03-17T01:23:49.191Z,100.00
2023-03-17T01:26:15.586Z,100.00
2023-03-17T01:28:42.286Z,100.00
2023-03-17T01:31:09.513Z,100.00
2023-03-17T01:33:36.419Z,100.00
2023-03-17T01:36:02.943Z,100.00
2023-03-17T01:38:29.626Z,100.00
2023-03-17T01:40:56.706Z,100.00
2023-03-17T01:43:28.094Z,100.00
2023-03-17T01:46:20.852Z,100.00
2023-03-17T01:49:22.520Z,100.00
2023-03-17T01:52:09.980Z,100.00
2023-03-17T01:54:42.047Z,100.00
2023-03-17T01:57:29.569Z,100.00
2023-03-17T02:00:01.705Z,100.00
2023-03-17T02:02:31.323Z,100.00
2023-03-17T02:04:58.905Z,100.00
2023-03-17T02:07:26.706Z,100.00
2023-03-17T02:09:55.996Z,100.00
2023-03-17T02:12:24.573Z,100.00
2023-03-17T02:14:51.977Z,100.00
2023-03-17T02:17:21.112Z,100.00
2023-03-17T02:19:48.179Z,100.00
2023-03-17T02:22:16.670Z,100.00
2023-03-17T02:24:51.710Z,100.00
2023-03-17T02:27:41.868Z,100.00
2023-03-17T02:30:10.905Z,100.00
2023-03-17T02:32:38.122Z,100.00
2023-03-17T02:35:07.276Z,100.00
2023-03-17T02:37:34.414Z,100.00
2023-03-17T02:40:01.728Z,100.00
2023-03-17T02:42:29.040Z,100.00
2023-03-17T02:44:55.460Z,100.00
2023-03-17T02:47:22.089Z,100.00
2023-03-17T02:49:49.268Z,100.00
2023-03-17T02:52:15.910Z,100.00
2023-03-17T02:54:42.763Z,100.00
2023-03-17T02:57:09.296Z,100.00
2023-03-17T02:59:36.228Z,100.00
2023-03-17T03:02:02.834Z,100.00
2023-03-17T03:04:29.670Z,100.00
2023-03-17T03:06:56.967Z,100.00
2023-03-17T03:09:24.154Z,100.00
2023-03-17T03:11:50.784Z,100.00
2023-03-17T03:14:17.305Z,100.00
2023-03-17T03:16:43.891Z,100.00
2023-03-17T03:19:10.462Z,100.00
2023-03-17T03:21:37.125Z,100.00
2023-03-17T03:24:04.383Z,100.00
2023-03-17T03:26:31.048Z,100.00
2023-03-17T03:28:58.380Z,100.00
2023-03-17T03:31:24.995Z,100.00
2023-03-17T03:33:51.552Z,100.00
2023-03-17T03:36:18.475Z,100.00
2023-03-17T03:38:44.970Z,100.00
2023-03-17T03:41:11.479Z,100.00
2023-03-17T03:43:37.897Z,100.00
2023-03-17T03:46:05.018Z,100.00
2023-03-17T03:48:31.499Z,100.00
2023-03-17T03:50:59.576Z,100.00
2023-03-17T03:53:26.509Z,100.00
2023-03-17T03:55:53.724Z,100.00
2023-03-17T03:58:20.326Z,100.00
2023-03-17T04:00:47.216Z,100.00
2023-03-17T04:03:14.766Z,100.00
2023-03-17T04:05:41.245Z,100.00
2023-03-17T04:08:08.076Z,100.00
2023-03-17T04:10:34.622Z,100.00
2023-03-17T04:13:01.264Z,100.00
2023-03-17T04:15:27.774Z,100.00
2023-03-17T04:17:55.355Z,100.00
2023-03-17T04:20:22.205Z,100.00
2023-03-17T04:22:48.601Z,100.00
2023-03-17T04:25:15.745Z,100.00
2023-03-17T04:27:42.696Z,100.00
2023-03-17T04:30:13.691Z,100.00
2023-03-17T04:32:40.422Z,100.00
2023-03-17T04:35:10.905Z,100.00
2023-03-17T04:37:38.798Z,100.00
2023-03-17T04:40:09.858Z,100.00
2023-03-17T04:42:37.532Z,100.00
2023-03-17T04:45:06.308Z,100.00
2023-03-17T04:47:33.115Z,100.00
2023-03-17T04:49:59.575Z,100.00
2023-03-17T04:52:26.151Z,100.00
2023-03-17T04:54:53.172Z,100.00
2023-03-17T04:57:19.649Z,100.00
2023-03-17T04:59:46.162Z,100.00
2023-03-17T05:02:12.900Z,100.00
2023-03-17T05:04:39.465Z,100.00
2023-03-17T05:07:06.440Z,100.00
2023-03-17T05:09:32.886Z,100.00
2023-03-17T05:11:59.354Z,100.00
2023-03-17T05:14:25.785Z,100.00
2023-03-17T05:16:52.417Z,100.00
2023-03-17T05:19:19.208Z,100.00
2023-03-17T05:21:46.667Z,100.00
2023-03-17T05:24:13.255Z,100.00
2023-03-17T05:26:40.599Z,100.00
2023-03-17T05:29:07.182Z,100.00
2023-03-17T05:31:33.864Z,100.00
2023-03-17T05:34:00.469Z,100.00
2023-03-17T05:36:26.968Z,100.00
2023-03-17T05:38:53.437Z,100.00
2023-03-17T05:41:19.957Z,100.00
2023-03-17T05:43:46.858Z,100.00
2023-03-17T05:46:13.680Z,100.00
2023-03-17T05:48:40.145Z,100.00
2023-03-17T05:51:06.805Z,100.00
2023-03-17T05:53:33.675Z,100.00
2023-03-17T05:56:00.139Z,100.00
2023-03-17T05:58:26.568Z,100.00
2023-03-17T06:00:53.057Z,100.00
2023-03-17T06:03:19.532Z,100.00
2023-03-17T06:05:46.019Z,100.00
2023-03-17T06:08:13.053Z,100.00
2023-03-17T06:10:39.676Z,100.00
2023-03-17T06:13:06.149Z,100.00
2023-03-17T06:15:33.874Z,100.00
2023-03-17T06:18:00.670Z,100.00
2023-03-17T06:20:27.198Z,100.00
2023-03-17T06:23:03.933Z,100.00
2023-03-17T06:25:31.657Z,100.00
2023-03-17T06:27:58.300Z,100.00
2023-03-17T06:30:24.784Z,100.00
2023-03-17T06:32:51.359Z,100.00
2023-03-17T06:35:18.107Z,100.00
2023-03-17T06:37:44.578Z,100.00
2023-03-17T06:40:12.488Z,100.00
2023-03-17T06:42:38.891Z,100.00
2023-03-17T06:45:06.368Z,100.00
2023-03-17T06:47:34.109Z,100.00
2023-03-17T06:50:00.747Z,100.00
2023-03-17T06:52:27.656Z,100.00
2023-03-17T06:54:54.027Z,100.00
2023-03-17T06:57:20.747Z,100.00
2023-03-17T06:59:47.187Z,100.00
2023-03-17T07:02:13.661Z,100.00
2023-03-17T07:04:40.162Z,100.00
2023-03-17T07:07:06.748Z,100.00
2023-03-17T07:09:34.439Z,100.00
2023-03-17T07:12:05.039Z,100.00
2023-03-17T07:14:36.707Z,100.00
2023-03-17T07:17:04.172Z,100.00
2023-03-17T07:19:31.186Z,100.00
2023-03-17T07:21:57.649Z,100.00
2023-03-17T07:24:24.617Z,100.00
2023-03-17T07:26:51.658Z,100.00
2023-03-17T07:29:18.294Z,100.00
2023-03-17T07:31:45.451Z,100.00
2023-03-17T07:34:12.708Z,100.00
2023-03-17T07:36:40.064Z,100.00
2023-03-17T07:39:06.792Z,100.00
2023-03-17T07:41:33.605Z,100.00
2023-03-17T07:44:00.606Z,100.00
2023-03-17T07:46:27.101Z,100.00
2023-03-17T07:48:53.543Z,100.00
2023-03-17T07:51:22.741Z,100.00
2023-03-17T07:53:50.117Z,100.00
2023-03-17T07:56:17.704Z,100.00
2023-03-17T07:58:44.842Z,100.00
2023-03-17T08:01:11.292Z,100.00
2023-03-17T08:03:41.310Z,100.00
2023-03-17T08:06:08.624Z,100.00
2023-03-17T08:08:35.210Z,99.88
2023-03-17T08:11:03.684Z,99.24
2023-03-17T08:13:31.472Z,97.86
2023-03-17T08:15:58.449Z,98.47
2023-03-17T08:18:24.843Z,97.45
2023-03-17T08:20:51.473Z,96.37
2023-03-17T08:23:19.009Z,93.43
2023-03-17T08:25:46.609Z,93.67
2023-03-17T08:28:14.166Z,93.10
2023-03-17T08:30:44.733Z,91.53
2023-03-17T08:33:11.242Z,90.90
2023-03-17T08:35:41.457Z,89.92
2023-03-17T08:38:08.841Z,89.26
2023-03-17T08:40:36.604Z,87.72
2023-03-17T08:43:03.200Z,86.20
2023-03-17T08:45:29.948Z,86.02
2023-03-17T08:47:56.625Z,85.50
2023-03-17T08:50:23.897Z,84.25
2023-03-17T08:52:51.769Z,83.17
2023-03-17T08:55:19.412Z,82.52
2023-03-17T08:57:46.237Z,82.77
2023-03-17T09:00:16.732Z,81.55
2023-03-17T09:02:45.005Z,82.15
2023-03-17T09:05:13.980Z,81.55
2023-03-17T09:07:41.591Z,82.08
2023-03-17T09:10:09.517Z,81.33
2023-03-17T09:12:35.956Z,80.33
2023-03-17T09:15:02.378Z,79.77
2023-03-17T09:17:28.911Z,79.53
2023-03-17T09:19:55.342Z,79.35
2023-03-17T09:22:21.986Z,78.93
2023-03-17T09:24:48.436Z,78.93
2023-03-17T09:27:14.835Z,79.18
2023-03-17T09:29:42.074Z,78.53
2023-03-17T09:32:08.735Z,77.52
2023-03-17T09:34:35.811Z,76.67
2023-03-17T09:37:02.240Z,76.71
2023-03-17T09:39:28.775Z,76.67
2023-03-17T09:42:19.800Z,71.93
2023-03-17T09:45:21.631Z,73.11
2023-03-17T09:48:03.033Z,72.19
2023-03-17T09:51:02.940Z,72.42
2023-03-17T09:53:34.614Z,72.42
2023-03-17T09:56:08.407Z,71.28
2023-03-17T09:58:36.766Z,72.35
2023-03-17T10:01:05.399Z,72.28
2023-03-17T10:03:33.134Z,72.04
2023-03-17T10:06:15.854Z,68.36
2023-03-17T10:09:00.605Z,67.93
2023-03-17T10:11:47.747Z,69.59
2023-03-17T10:14:29.435Z,66.91
2023-03-17T10:17:16.429Z,66.99
2023-03-17T10:19:50.105Z,66.57
2023-03-17T10:22:25.181Z,66.35
2023-03-17T10:24:56.105Z,68.17
2023-03-17T10:27:23.130Z,68.46
2023-03-17T10:29:49.710Z,68.64
2023-03-17T10:32:16.240Z,68.97
2023-03-17T10:34:43.416Z,69.14
2023-03-17T10:37:17.623Z,69.22
2023-03-17T10:39:49.076Z,69.88
2023-03-17T10:42:30.284Z,66.81
2023-03-17T10:44:58.206Z,68.14
2023-03-17T10:47:38.193Z,67.36
2023-03-17T10:50:28.768Z,67.78
2023-03-17T10:53:04.096Z,65.17
2023-03-17T10:55:40.829Z,64.97
2023-03-17T10:58:15.352Z,65.83
2023-03-17T11:00:56.715Z,64.60
2023-03-17T11:03:27.337Z,65.43
2023-03-17T11:06:10.181Z,64.56
2023-03-17T11:08:49.190Z,62.46
2023-03-17T11:11:30.768Z,62.24
2023-03-17T11:14:13.448Z,61.04
2023-03-17T11:16:54.513Z,60.59
2023-03-17T11:19:30.969Z,60.98
2023-03-17T11:22:25.924Z,59.56
2023-03-17T11:25:11.543Z,60.23
2023-03-17T11:27:44.439Z,59.45
2023-03-17T11:30:45.753Z,57.32
2023-03-17T11:33:42.505Z,57.69
2023-03-17T11:36:36.203Z,57.43
2023-03-17T11:39:16.522Z,58.44
2023-03-17T11:41:56.370Z,56.22
2023-03-17T11:44:44.452Z,56.57
2023-03-17T11:47:18.233Z,57.63
2023-03-17T11:49:50.938Z,57.03
2023-03-17T11:52:38.719Z,57.44
2023-03-17T11:55:11.165Z,56.99
2023-03-17T11:57:58.715Z,56.17
2023-03-17T12:01:00.332Z,56.60
2023-03-17T12:03:48.636Z,56.24
2023-03-17T12:06:25.864Z,55.49
2023-03-17T12:09:17.400Z,54.29
2023-03-17T12:11:45.721Z,54.90
2023-03-17T12:14:26.900Z,53.25
2023-03-17T12:17:01.711Z,53.55
2023-03-17T12:19:39.672Z,52.80
2023-03-17T12:22:17.093Z,53.48
2023-03-17T12:25:38.981Z,52.89
2023-03-17T12:28:09.820Z,53.44
2023-03-17T12:31:04.145Z,51.24
2023-03-17T12:33:37.813Z,52.54
2023-03-17T12:36:05.906Z,52.79
2023-03-17T12:38:39.795Z,51.83
2023-03-17T12:41:15.320Z,51.44
2023-03-17T12:44:06.762Z,51.16
2023-03-17T12:46:52.170Z,52.61
2023-03-17T12:49:45.183Z,51.94
2023-03-17T12:52:16.776Z,52.81
2023-03-17T12:54:49.886Z,51.33
2023-03-17T12:57:22.419Z,51.24
2023-03-17T12:59:57.627Z,51.78
2023-03-17T13:02:29.976Z,51.72
2023-03-17T13:05:00.575Z,52.36
2023-03-17T13:07:34.301Z,51.18
2023-03-17T13:10:00.625Z,52.19
2023-03-17T13:12:42.700Z,50.68
2023-03-17T13:15:47.383Z,50.76
2023-03-17T13:18:16.830Z,51.48
2023-03-17T13:20:51.374Z,51.60
2023-03-17T13:23:23.596Z,52.28
2023-03-17T13:25:53.636Z,51.92
2023-03-17T13:28:45.330Z,51.18
2023-03-17T13:31:26.840Z,50.09
2023-03-17T13:33:56.279Z,51.24
2023-03-17T13:36:25.537Z,50.87
2023-03-17T13:39:27.323Z,50.86
2023-03-17T13:42:23.282Z,51.74
2023-03-17T13:45:32.683Z,50.90
2023-03-17T13:48:37.941Z,50.90
2023-03-17T13:51:24.057Z,51.12
2023-03-17T13:53:56.561Z,51.52
2023-03-17T13:56:45.557Z,51.83
2023-03-17T13:59:14.357Z,51.98
2023-03-17T14:02:12.256Z,51.30
2023-03-17T14:04:57.506Z,51.52
2023-03-17T14:07:28.071Z,51.54
2023-03-17T14:09:59.130Z,51.37
2023-03-17T14:12:39.337Z,50.98
2023-03-17T14:15:17.862Z,50.73
2023-03-17T14:18:10.958Z,50.73
2023-03-17T14:20:37.402Z,51.54
2023-03-17T14:23:04.461Z,51.33
2023-03-17T14:25:37.117Z,51.28
2023-03-17T14:28:12.592Z,51.50
2023-03-17T14:30:39.505Z,51.55
2023-03-17T14:33:12.031Z,51.77
2023-03-17T14:35:43.138Z,51.88
2023-03-17T14:38:19.832Z,51.69
2023-03-17T14:40:47.248Z,52.00
2023-03-17T14:43:15.068Z,51.91
2023-03-17T14:45:51.347Z,51.60
2023-03-17T14:48:25.924Z,51.90
2023-03-17T14:50:59.775Z,51.79
2023-03-17T14:53:26.383Z,52.26
2023-03-17T14:55:53.638Z,52.00
2023-03-17T14:58:26.360Z,51.96
2023-03-17T15:01:03.007Z,51.76
2023-03-17T15:03:31.571Z,52.15
2023-03-17T15:06:24.627Z,52.29
2023-03-17T15:08:52.539Z,52.62
2023-03-17T15:11:28.476Z,52.17
2023-03-17T15:14:03.408Z,52.46
2023-03-17T15:16:33.754Z,52.47
2023-03-17T15:19:24.156Z,51.82
2023-03-17T15:21:50.804Z,52.51
2023-03-17T15:24:34.623Z,51.75
2023-03-17T15:27:03.529Z,52.09
2023-03-17T15:29:30.627Z,52.00
2023-03-17T15:32:02.902Z,52.18
2023-03-17T15:34:29.386Z,52.23
2023-03-17T15:36:57.051Z,52.06
2023-03-17T15:39:24.332Z,52.15
2023-03-17T15:41:50.889Z,52.22
2023-03-17T15:44:17.291Z,52.38
2023-03-17T15:46:43.709Z,52.31
2023-03-17T15:49:12.956Z,51.83
2023-03-17T15:51:39.573Z,52.60
2023-03-17T15:54:06.028Z,52.63
2023-03-17T15:56:32.519Z,52.36
2023-03-17T15:58:59.101Z,52.77
2023-03-17T16:01:27.889Z,52.31
2023-03-17T16:03:54.664Z,52.24
2023-03-17T16:06:22.990Z,52.13
2023-03-17T16:08:50.149Z,52.09
2023-03-17T16:11:19.910Z,52.13
2023-03-17T16:13:47.180Z,52.35
2023-03-17T16:16:40.013Z,51.22
2023-03-17T16:19:10.261Z,52.05
2023-03-17T16:21:37.256Z,52.01
2023-03-17T16:24:03.808Z,52.21
2023-03-17T16:26:30.378Z,52.27
2023-03-17T16:28:57.504Z,52.43
2023-03-17T16:31:31.393Z,52.03
2023-03-17T16:33:58.009Z,52.44
2023-03-17T16:36:25.682Z,52.81
2023-03-17T16:38:52.582Z,53.57
2023-03-17T16:41:24.921Z,54.14
2023-03-17T16:43:56.679Z,54.41
2023-03-17T16:46:23.519Z,54.80
2023-03-17T16:48:50.385Z,55.14
2023-03-17T16:51:17.836Z,55.36
2023-03-17T16:53:46.827Z,55.91
2023-03-17T16:56:16.661Z,56.26
2023-03-17T16:58:43.477Z,56.45
2023-03-17T17:01:14.857Z,56.80
2023-03-17T17:03:41.493Z,57.06
2023-03-17T17:06:09.562Z,57.35
2023-03-17T17:08:36.205Z,57.91
2023-03-17T17:11:02.856Z,58.35
2023-03-17T17:13:29.277Z,58.51
2023-03-17T17:15:56.232Z,59.08
2023-03-17T17:18:24.639Z,59.62
2023-03-17T17:20:52.829Z,59.68
2023-03-17T17:23:26.912Z,61.00
2023-03-17T17:25:54.492Z,60.65
2023-03-17T17:28:23.240Z,59.76
2023-03-17T17:30:50.950Z,60.36
2023-03-17T17:33:19.138Z,61.17
2023-03-17T17:35:46.178Z,61.79
2023-03-17T17:38:19.816Z,62.88
2023-03-17T17:40:46.574Z,62.83
2023-03-17T17:43:13.072Z,63.30
2023-03-17T17:45:39.859Z,63.81
2023-03-17T17:48:06.330Z,64.10
2023-03-17T17:50:33.357Z,64.46
2023-03-17T17:53:05.236Z,65.34
2023-03-17T17:55:33.757Z,66.27
2023-03-17T17:58:00.853Z,66.70
2023-03-17T18:00:27.701Z,67.40
2023-03-17T18:02:54.208Z,67.18
2023-03-17T18:05:20.973Z,67.44
2023-03-17T18:07:47.505Z,68.15
2023-03-17T18:10:23.969Z,68.89
2023-03-17T18:12:50.681Z,68.28
2023-03-17T18:15:17.752Z,68.96
2023-03-17T18:17:44.245Z,70.04
2023-03-17T18:20:13.507Z,70.89
2023-03-17T18:22:40.813Z,71.25
2023-03-17T18:25:09.853Z,71.08
2023-03-17T18:27:37.659Z,70.99
2023-03-17T18:30:07.229Z,71.24
2023-03-17T18:32:33.777Z,71.78
2023-03-17T18:35:03.491Z,72.57
2023-03-17T18:37:31.049Z,74.63
2023-03-17T18:40:12.581Z,77.95
2023-03-17T18:42:41.086Z,78.60
2023-03-17T18:45:09.658Z,80.87
2023-03-17T18:47:38.801Z,81.37
2023-03-17T18:50:07.066Z,81.57
2023-03-17T18:52:35.744Z,82.18
2023-03-17T18:55:02.766Z,81.94
2023-03-17T18:57:29.338Z,83.00
2023-03-17T18:59:55.912Z,84.28
2023-03-17T19:02:22.759Z,84.27
2023-03-17T19:04:49.404Z,85.03
2023-03-17T19:07:16.423Z,85.68
2023-03-17T19:09:42.965Z,86.86
2023-03-17T19:12:09.878Z,88.06
2023-03-17T19:14:38.747Z,88.62
2023-03-17T19:17:06.210Z,89.22
2023-03-17T19:19:33.869Z,90.75
2023-03-17T19:22:01.953Z,90.42
2023-03-17T19:24:28.350Z,90.12
2023-03-17T19:26:54.827Z,90.21
2023-03-17T19:29:21.291Z,90.79
2023-03-17T19:31:48.683Z,93.04
2023-03-17T19:34:15.473Z,95.53
2023-03-17T19:36:45.753Z,99.07
2023-03-17T19:39:13.160Z,100.00
2023-03-17T19:41:39.975Z,100.00
2023-03-17T19:44:06.816Z,100.00
2023-03-17T19:46:34.280Z,100.00
2023-03-17T19:49:01.580Z,100.00
2023-03-17T19:51:28.860Z,100.00
2023-03-17T19:53:55.845Z,100.00
2023-03-17T19:56:23.093Z,100.00
2023-03-17T19:58:50.012Z,100.00
2023-03-17T20:01:17.122Z,100.00
2023-03-17T20:03:43.769Z,100.00
2023-03-17T20:06:11.917Z,100.00
2023-03-17T20:08:39.392Z,100.00
2023-03-17T20:11:06.282Z,100.00
2023-03-17T20:13:34.523Z,100.00
2023-03-17T20:16:02.003Z,100.00
2023-03-17T20:18:29.310Z,100.00
2023-03-17T20:20:57.471Z,100.00
2023-03-17T20:23:25.094Z,100.00
2023-03-17T20:25:52.488Z,100.00
2023-03-17T20:28:21.323Z,100.00
2023-03-17T20:30:49.279Z,100.00
2023-03-17T20:33:16.832Z,100.00
2023-03-17T20:35:46.780Z,100.00
2023-03-17T20:38:14.509Z,100.00
2023-03-17T20:40:41.758Z,100.00
2023-03-17T20:43:08.494Z,100.00
2023-03-17T20:45:35.054Z,100.00
2023-03-17T20:48:02.006Z,100.00
2023-03-17T20:50:30.939Z,100.00
2023-03-17T20:52:57.779Z,100.00
2023-03-17T20:55:25.494Z,100.00
2023-03-17T20:57:52.625Z,100.00
2023-03-17T21:00:21.161Z,100.00
2023-03-17T21:02:50.140Z,100.00
2023-03-17T21:05:23.153Z,100.00
2023-03-17T21:07:50.139Z,100.00
2023-03-17T21:10:18.010Z,100.00
2023-03-17T21:12:45.305Z,100.00
2023-03-17T21:15:12.927Z,100.00
2023-03-17T21:17:40.088Z,100.00
2023-03-17T21:20:09.540Z,100.00
2023-03-17T21:22:36.773Z,100.00
2023-03-17T21:25:04.695Z,100.00
2023-03-17T21:27:31.126Z,100.00
2023-03-17T21:29:57.598Z,100.00
2023-03-17T21:32:25.104Z,100.00
2023-03-17T21:34:51.638Z,100.00
2023-03-17T21:37:18.734Z,100.00
2023-03-17T21:39:45.791Z,100.00
2023-03-17T21:42:12.611Z,100.00
2023-03-17T21:44:39.460Z,100.00
2023-03-17T21:47:05.866Z,100.00
2023-03-17T21:49:32.264Z,100.00
2023-03-17T21:51:58.672Z,100.00
2023-03-17T21:54:25.593Z,100.00
2023-03-17T21:56:52.670Z,100.00
2023-03-17T21:59:20.928Z,100.00
2023-03-17T22:01:47.898Z,100.00
2023-03-17T22:04:14.403Z,100.00
2023-03-17T22:06:41.197Z,100.00
2023-03-17T22:09:08.609Z,100.00
2023-03-17T22:11:35.071Z,100.00
2023-03-17T22:14:01.896Z,100.00
2023-03-17T22:16:28.489Z,100.00
2023-03-17T22:18:55.036Z,100.00
2023-03-17T22:21:21.625Z,100.00
2023-03-17T22:23:48.167Z,100.00
2023-03-17T22:26:17.739Z,100.00
2023-03-17T22:28:45.384Z,100.00
2023-03-17T22:31:19.997Z,100.00
2023-03-17T22:33:48.804Z,100.00
2023-03-17T22:36:15.998Z,100.00
2023-03-17T22:38:42.423Z,100.00
2023-03-17T22:41:13.604Z,100.00
2023-03-17T22:43:41.603Z,100.00
2023-03-17T22:46:09.244Z,100.00
2023-03-17T22:48:36.129Z,100.00
2023-03-17T22:51:03.774Z,100.00
2023-03-17T22:53:31.433Z,100.00
2023-03-17T22:55:58.275Z,100.00
2023-03-17T22:58:26.048Z,100.00
2023-03-17T23:00:53.679Z,100.00
2023-03-17T23:03:20.580Z,100.00
2023-03-17T23:05:49.639Z,100.00
2023-03-17T23:08:20.145Z,100.00
2023-03-17T23:10:50.552Z,100.00
2023-03-17T23:13:18.848Z,100.00
2023-03-17T23:15:45.838Z,100.00
2023-03-17T23:18:12.247Z,100.00
2023-03-17T23:20:40.108Z,100.00
2023-03-17T23:23:08.297Z,100.00
2023-03-17T23:25:36.485Z,100.00
2023-03-17T23:28:03.219Z,100.00
2023-03-17T23:30:30.870Z,100.00
2023-03-17T23:32:58.128Z,100.00
2023-03-17T23:35:25.237Z,100.00
2023-03-17T23:37:51.988Z,100.00
2023-03-17T23:40:18.540Z,100.00
2023-03-17T23:42:46.022Z,100.00
2023-03-17T23:45:12.511Z,100.00
2023-03-17T23:47:38.947Z,100.00
2023-03-17T23:50:05.959Z,100.00
2023-03-17T23:52:32.677Z,100.00
2023-03-17T23:54:59.081Z,100.00
2023-03-17T23:57:26.020Z,100.00
2023-03-17T23:59:52.452Z,100.00
